createdAt,value
2023-05-20T00:00:31.075Z,0.60
2023-05-20T00:03:35.192Z,1.00
2023-05-20T00:06:38.900Z,1.00
2023-05-20T00:09:43.855Z,0.93
2023-05-20T00:12:48.274Z,0.80
2023-05-20T00:15:51.970Z,0.70
2023-05-20T00:18:56.868Z,0.90
2023-05-20T00:22:00.439Z,1.10
2023-05-20T00:25:06.403Z,0.83
2023-05-20T00:28:09.993Z,1.10
2023-05-20T00:31:13.810Z,0.80
2023-05-20T00:34:17.345Z,1.00
2023-05-20T00:37:20.913Z,0.83
2023-05-20T00:40:26.092Z,0.80
2023-05-20T00:43:29.632Z,0.90
2023-05-20T00:46:33.477Z,0.80
2023-05-20T00:49:37.271Z,1.17
2023-05-20T00:52:41.685Z,0.90
2023-05-20T00:55:46.834Z,0.90
2023-05-20T00:58:51.189Z,1.00
2023-05-20T01:01:56.494Z,1.10
2023-05-20T01:05:00.904Z,0.70
2023-05-20T01:08:05.861Z,1.20
2023-05-20T01:11:20.009Z,1.07
2023-05-20T01:14:28.439Z,0.70
2023-05-20T01:17:38.018Z,0.70
2023-05-20T01:20:41.765Z,1.10
2023-05-20T01:23:46.750Z,0.87
2023-05-20T01:26:50.714Z,0.73
2023-05-20T01:29:54.908Z,0.90
2023-05-20T01:33:07.024Z,1.03
2023-05-20T01:36:13.322Z,0.90
2023-05-20T01:39:20.007Z,1.03
2023-05-20T01:42:26.638Z,1.10
2023-05-20T01:45:30.294Z,1.00
2023-05-20T01:48:34.685Z,1.00
2023-05-20T01:51:38.402Z,0.70
2023-05-20T01:54:43.324Z,0.70
2023-05-20T01:57:47.285Z,1.03
2023-05-20T02:00:51.084Z,0.90
2023-05-20T02:03:54.797Z,1.23
2023-05-20T02:06:59.376Z,0.93
2023-05-20T02:10:04.600Z,1.10
2023-05-20T02:13:08.113Z,1.10
2023-05-20T02:16:11.732Z,0.70
2023-05-20T02:19:20.172Z,1.13
2023-05-20T02:22:23.686Z,0.90
2023-05-20T02:25:28.663Z,1.03
2023-05-20T02:28:32.356Z,0.90
2023-05-20T02:31:36.058Z,0.93
2023-05-20T02:34:40.521Z,0.90
2023-05-20T02:37:44.950Z,0.73
2023-05-20T02:40:49.979Z,1.00
2023-05-20T02:43:54.309Z,0.90
2023-05-20T02:46:57.879Z,1.17
2023-05-20T02:50:01.605Z,1.03
2023-05-20T02:53:05.393Z,1.00
2023-05-20T02:56:11.049Z,1.13
2023-05-20T02:59:14.664Z,1.33
2023-05-20T03:02:18.188Z,0.80
2023-05-20T03:05:22.854Z,0.93
2023-05-20T03:08:26.978Z,0.90
2023-05-20T03:11:32.024Z,0.80
2023-05-20T03:14:35.544Z,1.10
2023-05-20T03:17:39.207Z,1.23
2023-05-20T03:20:43.096Z,0.90
2023-05-20T03:23:46.973Z,1.07
2023-05-20T03:26:51.984Z,0.90
2023-05-20T03:29:55.669Z,0.80
2023-05-20T03:33:00.326Z,1.10
2023-05-20T03:36:04.096Z,1.07
2023-05-20T03:39:07.961Z,1.20
2023-05-20T03:42:12.971Z,1.40
2023-05-20T03:45:16.549Z,1.10
2023-05-20T03:48:20.325Z,1.00
2023-05-20T03:51:23.898Z,0.90
2023-05-20T03:54:28.159Z,1.10
2023-05-20T03:57:33.438Z,0.98
2023-05-20T04:00:37.086Z,1.23
2023-05-20T04:03:42.178Z,1.10
2023-05-20T04:06:46.330Z,1.20
2023-05-20T04:09:51.159Z,1.20
2023-05-20T04:12:56.141Z,1.00
2023-05-20T04:16:00.246Z,1.10
2023-05-20T04:19:03.875Z,1.33
2023-05-20T04:22:08.002Z,1.30
2023-05-20T04:25:12.435Z,1.30
2023-05-20T04:28:18.066Z,1.27
2023-05-20T04:31:27.029Z,1.00
2023-05-20T04:34:35.218Z,1.20
2023-05-20T04:37:39.131Z,1.07
2023-05-20T04:40:42.959Z,1.30
2023-05-20T04:43:48.010Z,1.17
2023-05-20T04:46:51.686Z,1.60
2023-05-20T04:49:57.734Z,1.10
2023-05-20T04:53:01.950Z,1.37
2023-05-20T04:56:06.497Z,0.90
2023-05-20T04:59:11.560Z,1.23
2023-05-20T05:02:15.764Z,0.90
2023-05-20T05:05:19.566Z,0.97
2023-05-20T05:08:23.249Z,1.27
2023-05-20T05:11:27.173Z,1.13
2023-05-20T05:14:32.056Z,1.40
2023-05-20T05:17:35.996Z,1.10
2023-05-20T05:20:39.594Z,1.00
2023-05-20T05:23:43.839Z,0.87
2023-05-20T05:26:47.329Z,0.90
2023-05-20T05:29:52.307Z,1.20
2023-05-20T05:32:56.043Z,0.90
2023-05-20T05:36:01.211Z,1.23
2023-05-20T05:39:04.860Z,1.20
2023-05-20T05:42:08.499Z,1.07
2023-05-20T05:45:13.679Z,1.07
2023-05-20T05:48:17.332Z,0.90
2023-05-20T05:51:21.031Z,1.10
2023-05-20T05:54:24.746Z,1.10
2023-05-20T05:57:28.233Z,1.23
2023-05-20T06:00:33.302Z,1.10
2023-05-20T06:03:36.927Z,1.03
2023-05-20T06:06:40.665Z,1.03
2023-05-20T06:09:44.182Z,1.47
2023-05-20T06:12:47.668Z,1.10
2023-05-20T06:15:53.714Z,1.30
2023-05-20T06:18:57.625Z,1.07
2023-05-20T06:22:01.415Z,0.97
2023-05-20T06:25:06.417Z,1.27
2023-05-20T06:28:10.564Z,1.03
2023-05-20T06:31:15.828Z,1.03
2023-05-20T06:34:19.519Z,1.30
2023-05-20T06:37:24.558Z,1.07
2023-05-20T06:40:28.852Z,1.47
2023-05-20T06:43:34.229Z,1.43
2023-05-20T06:46:39.467Z,1.20
2023-05-20T06:49:44.493Z,1.30
2023-05-20T06:52:50.099Z,1.33
2023-05-20T06:55:56.833Z,1.43
2023-05-20T06:59:00.744Z,1.23
2023-05-20T07:02:06.502Z,1.10
2023-05-20T07:05:11.611Z,1.70
2023-05-20T07:08:15.279Z,0.83
2023-05-20T07:11:19.030Z,1.50
2023-05-20T07:14:22.679Z,1.57
2023-05-20T07:17:29.373Z,1.20
2023-05-20T07:20:33.166Z,1.30
2023-05-20T07:23:37.131Z,1.41
2023-05-20T07:26:41.201Z,1.80
2023-05-20T07:29:44.681Z,1.40
2023-05-20T07:32:49.654Z,1.50
2023-05-20T07:35:54.619Z,2.10
2023-05-20T07:39:04.004Z,1.80
2023-05-20T07:42:09.767Z,1.73
2023-05-20T07:45:13.457Z,1.53
2023-05-20T07:48:18.915Z,1.60
2023-05-20T07:51:22.494Z,1.67
2023-05-20T07:54:26.140Z,1.73
2023-05-20T07:57:30.420Z,1.70
2023-05-20T08:00:33.928Z,1.90
2023-05-20T08:03:39.145Z,1.90
2023-05-20T08:06:44.495Z,1.60
2023-05-20T08:09:48.401Z,2.20
2023-05-20T08:12:52.197Z,1.80
2023-05-20T08:15:55.851Z,1.90
2023-05-20T08:19:00.768Z,2.03
2023-05-20T08:22:04.338Z,1.63
2023-05-20T08:25:11.070Z,1.83
2023-05-20T08:28:15.282Z,1.80
2023-05-20T08:31:19.323Z,1.60
2023-05-20T08:34:24.362Z,1.67
2023-05-20T08:37:28.245Z,1.57
2023-05-20T08:40:31.812Z,1.40
2023-05-20T08:43:36.179Z,1.90
2023-05-20T08:46:41.941Z,1.70
2023-05-20T08:49:47.296Z,1.73
2023-05-20T08:52:51.751Z,1.60
2023-05-20T08:56:01.518Z,1.57
2023-05-20T08:59:06.539Z,1.40
2023-05-20T09:02:11.993Z,1.73
2023-05-20T09:05:18.200Z,2.93
2023-05-20T09:08:26.922Z,1.50
2023-05-20T09:11:31.995Z,2.10
2023-05-20T09:14:35.914Z,1.30
2023-05-20T09:17:40.311Z,1.43
2023-05-20T09:20:49.547Z,1.63
2023-05-20T09:23:54.199Z,1.17
2023-05-20T09:26:58.952Z,1.57
2023-05-20T09:30:02.620Z,1.30
2023-05-20T09:33:07.874Z,1.67
2023-05-20T09:36:16.623Z,1.60
2023-05-20T09:39:30.785Z,1.47
2023-05-20T09:42:44.159Z,1.40
2023-05-20T09:45:48.893Z,1.50
2023-05-20T09:48:52.762Z,1.40
2023-05-20T09:52:00.831Z,1.13
2023-05-20T09:55:07.010Z,1.90
2023-05-20T09:58:16.277Z,1.10
2023-05-20T10:01:20.146Z,1.30
2023-05-20T10:04:26.743Z,1.20
2023-05-20T10:08:12.964Z,1.27
2023-05-20T10:11:29.417Z,1.00
2023-05-20T10:14:56.811Z,1.27
2023-05-20T10:18:19.781Z,1.33
2023-05-20T10:21:26.073Z,0.90
2023-05-20T10:24:38.201Z,1.00
2023-05-20T10:27:46.496Z,1.10
2023-05-20T10:30:52.241Z,1.20
2023-05-20T10:33:56.145Z,1.10
2023-05-20T10:37:00.433Z,1.10
2023-05-20T10:40:14.722Z,1.07
2023-05-20T10:43:27.793Z,1.20
2023-05-20T10:46:40.069Z,0.80
2023-05-20T10:49:53.917Z,0.87
2023-05-20T10:53:05.322Z,0.97
2023-05-20T10:56:19.432Z,1.00
2023-05-20T10:59:23.820Z,1.20
2023-05-20T11:02:29.218Z,1.20
2023-05-20T11:05:34.063Z,0.90
2023-05-20T11:08:37.645Z,1.03
2023-05-20T11:11:43.116Z,1.10
2023-05-20T11:14:47.606Z,0.90
2023-05-20T11:17:56.061Z,1.30
2023-05-20T11:21:00.023Z,1.27
2023-05-20T11:24:03.576Z,0.90
2023-05-20T11:27:09.799Z,0.90
2023-05-20T11:30:17.071Z,1.37
2023-05-20T11:33:20.974Z,1.30
2023-05-20T11:36:28.096Z,1.10
2023-05-20T11:39:32.877Z,1.87
2023-05-20T11:42:38.646Z,0.90
2023-05-20T11:45:43.579Z,1.40
2023-05-20T11:48:55.046Z,1.10
2023-05-20T11:51:58.930Z,1.20
2023-05-20T11:55:02.524Z,1.30
2023-05-20T11:58:07.561Z,1.37
2023-05-20T12:01:21.708Z,1.53
2023-05-20T12:04:26.239Z,1.23
2023-05-20T12:07:29.950Z,1.00
2023-05-20T12:10:34.281Z,1.03
2023-05-20T12:13:41.004Z,1.27
2023-05-20T12:16:44.598Z,1.20
2023-05-20T12:19:48.140Z,0.97
2023-05-20T12:22:52.821Z,1.20
2023-05-20T12:25:56.662Z,1.00
2023-05-20T12:29:01.684Z,1.20
2023-05-20T12:32:06.193Z,1.40
2023-05-20T12:35:11.504Z,1.37
2023-05-20T12:38:15.098Z,1.27
2023-05-20T12:41:18.829Z,1.20
2023-05-20T12:44:23.763Z,1.20
2023-05-20T12:47:27.505Z,1.20
2023-05-20T12:50:30.996Z,1.10
2023-05-20T12:53:34.604Z,1.50
2023-05-20T12:56:38.164Z,1.83
2023-05-20T12:59:43.151Z,1.23
2023-05-20T13:02:46.822Z,1.10
2023-05-20T13:05:50.581Z,1.30
2023-05-20T13:08:54.136Z,1.30
2023-05-20T13:11:57.773Z,1.03
2023-05-20T13:15:02.928Z,1.50
2023-05-20T13:18:07.138Z,1.60
2023-05-20T13:21:10.793Z,1.10
2023-05-20T13:24:14.406Z,1.00
2023-05-20T13:27:17.930Z,1.20
2023-05-20T13:30:22.796Z,1.33
2023-05-20T13:33:26.304Z,1.30
2023-05-20T13:36:29.921Z,1.10
2023-05-20T13:39:33.533Z,1.20
2023-05-20T13:42:37.537Z,1.20
2023-05-20T13:45:42.599Z,1.30
2023-05-20T13:48:46.325Z,1.10
2023-05-20T13:51:49.921Z,1.10
2023-05-20T13:54:53.410Z,1.60
2023-05-20T13:57:57.038Z,1.50
2023-05-20T14:01:02.281Z,1.10
2023-05-20T14:04:06.062Z,0.90
2023-05-20T14:07:10.097Z,1.43
2023-05-20T14:10:14.631Z,1.30
2023-05-20T14:13:18.109Z,1.50
2023-05-20T14:16:23.079Z,1.93
2023-05-20T14:19:27.418Z,1.37
2023-05-20T14:22:31.116Z,1.30
2023-05-20T14:25:34.758Z,1.63
2023-05-20T14:28:38.681Z,1.53
2023-05-20T14:31:43.944Z,1.80
2023-05-20T14:34:47.576Z,1.20
2023-05-20T14:37:51.282Z,1.50
2023-05-20T14:40:54.807Z,1.20
2023-05-20T14:43:58.466Z,1.47
2023-05-20T14:47:04.404Z,1.50
2023-05-20T14:50:08.998Z,1.47
2023-05-20T14:53:12.622Z,1.67
2023-05-20T14:56:16.247Z,1.40
2023-05-20T14:59:20.376Z,1.43
2023-05-20T15:02:25.429Z,1.50
2023-05-20T15:05:29.101Z,1.97
2023-05-20T15:08:33.575Z,1.80
2023-05-20T15:11:37.168Z,1.87
2023-05-20T15:14:40.669Z,1.80
2023-05-20T15:17:45.564Z,1.57
2023-05-20T15:20:49.284Z,1.67
2023-05-20T15:23:52.813Z,1.90
2023-05-20T15:26:56.361Z,1.90
2023-05-20T15:29:59.967Z,1.97
2023-05-20T15:33:05.107Z,1.60
2023-05-20T15:36:09.184Z,1.90
2023-05-20T15:39:13.053Z,1.97
2023-05-20T15:42:18.735Z,1.80
2023-05-20T15:45:22.382Z,2.30
2023-05-20T15:48:28.488Z,2.23
2023-05-20T15:51:31.945Z,1.80
2023-05-20T15:54:35.812Z,2.80
2023-05-20T15:57:39.391Z,2.23
2023-05-20T16:00:43.104Z,1.80
2023-05-20T16:03:48.393Z,2.00
2023-05-20T16:06:52.028Z,2.50
2023-05-20T16:09:55.970Z,2.30
2023-05-20T16:12:59.722Z,1.80
2023-05-20T16:16:03.835Z,2.30
2023-05-20T16:19:08.823Z,2.23
2023-05-20T16:22:13.515Z,2.23
2023-05-20T16:25:17.189Z,2.57
2023-05-20T16:28:20.728Z,2.40
2023-05-20T16:31:24.700Z,2.63
2023-05-20T16:34:29.590Z,2.60
2023-05-20T16:37:33.266Z,3.97
2023-05-20T16:40:36.862Z,2.33
2023-05-20T16:43:40.454Z,2.43
2023-05-20T16:46:44.137Z,2.30
2023-05-20T16:49:49.149Z,2.50
2023-05-20T16:52:52.843Z,2.43
2023-05-20T16:55:56.823Z,2.23
2023-05-20T16:59:00.385Z,2.23
2023-05-20T17:02:04.317Z,2.30
2023-05-20T17:05:11.107Z,2.50
2023-05-20T17:08:15.265Z,2.17
2023-05-20T17:11:18.982Z,2.53
2023-05-20T17:14:22.657Z,2.40
2023-05-20T17:17:26.209Z,2.47
2023-05-20T17:20:31.705Z,2.27
2023-05-20T17:23:35.414Z,2.10
2023-05-20T17:26:39.649Z,2.37
2023-05-20T17:29:43.408Z,2.47
2023-05-20T17:32:48.107Z,1.70
2023-05-20T17:35:53.090Z,2.30
2023-05-20T17:38:57.032Z,1.93
2023-05-20T17:42:00.586Z,2.20
2023-05-20T17:45:04.394Z,2.23
2023-05-20T17:48:10.073Z,2.20
2023-05-20T17:51:16.984Z,2.07
2023-05-20T17:54:20.793Z,1.83
2023-05-20T17:57:24.448Z,2.30
2023-05-20T18:00:28.604Z,1.73
2023-05-20T18:03:32.434Z,1.73
2023-05-20T18:06:38.214Z,1.60
2023-05-20T18:09:41.876Z,1.80
2023-05-20T18:12:45.563Z,1.60
2023-05-20T18:15:49.376Z,1.93
2023-05-20T18:18:53.058Z,2.07
2023-05-20T18:21:58.671Z,1.63
2023-05-20T18:25:02.266Z,1.70
2023-05-20T18:28:08.821Z,2.07
2023-05-20T18:31:12.485Z,1.73
2023-05-20T18:34:16.279Z,1.70
2023-05-20T18:37:21.472Z,1.70
2023-05-20T18:40:25.325Z,1.20
2023-05-20T18:43:28.858Z,1.60
2023-05-20T18:46:33.296Z,1.77
2023-05-20T18:49:37.020Z,1.67
2023-05-20T18:52:42.266Z,1.97
2023-05-20T18:55:47.760Z,2.20
2023-05-20T18:58:51.726Z,2.00
2023-05-20T19:01:55.285Z,1.70
2023-05-20T19:04:58.877Z,1.80
2023-05-20T19:08:05.894Z,1.63
2023-05-20T19:11:09.994Z,2.13
2023-05-20T19:14:13.623Z,2.10
2023-05-20T19:17:20.250Z,2.10
2023-05-20T19:20:24.720Z,2.33
2023-05-20T19:23:29.736Z,2.33
2023-05-20T19:26:33.936Z,2.67
2023-05-20T19:29:37.513Z,2.30
2023-05-20T19:32:41.143Z,2.87
2023-05-20T19:35:44.855Z,2.20
2023-05-20T19:38:49.966Z,2.30
2023-05-20T19:41:54.177Z,3.07
2023-05-20T19:44:57.974Z,2.50
2023-05-20T19:48:01.882Z,2.50
2023-05-20T19:51:05.758Z,2.70
2023-05-20T19:54:37.681Z,2.90
2023-05-20T19:57:42.136Z,2.40
2023-05-20T20:00:45.867Z,2.90
2023-05-20T20:03:49.373Z,2.63
2023-05-20T20:06:52.853Z,2.80
2023-05-20T20:09:58.068Z,2.90
2023-05-20T20:13:01.786Z,2.97
2023-05-20T20:16:06.239Z,2.70
2023-05-20T20:19:11.929Z,3.30
2023-05-20T20:22:16.827Z,2.90
2023-05-20T20:25:22.021Z,2.63
2023-05-20T20:28:25.850Z,3.07
2023-05-20T20:31:29.625Z,2.80
2023-05-20T20:34:33.157Z,3.10
2023-05-20T20:37:38.431Z,2.60
2023-05-20T20:40:44.935Z,3.00
2023-05-20T20:43:48.713Z,2.83
2023-05-20T20:46:52.824Z,3.00
2023-05-20T20:49:56.996Z,2.60
2023-05-20T20:53:00.607Z,3.20
2023-05-20T20:56:06.280Z,3.30
2023-05-20T20:59:10.313Z,2.93
2023-05-20T21:02:14.068Z,3.10
2023-05-20T21:05:18.072Z,2.83
2023-05-20T21:08:27.704Z,2.77
2023-05-20T21:11:33.153Z,3.73
2023-05-20T21:14:37.178Z,3.27
2023-05-20T21:17:40.908Z,2.80
2023-05-20T21:20:44.769Z,2.87
2023-05-20T21:23:49.110Z,2.93
2023-05-20T21:26:54.045Z,3.00
2023-05-20T21:29:57.782Z,2.90
2023-05-20T21:33:01.737Z,2.83
2023-05-20T21:36:06.359Z,2.93
2023-05-20T21:39:09.915Z,2.80
2023-05-20T21:42:14.854Z,3.37
2023-05-20T21:45:18.932Z,3.37
2023-05-20T21:48:23.198Z,3.60
2023-05-20T21:51:26.728Z,3.20
2023-05-20T21:54:30.209Z,3.00
2023-05-20T21:57:35.059Z,3.30
2023-05-20T22:00:38.893Z,3.30
2023-05-20T22:03:47.868Z,3.67
2023-05-20T22:06:54.272Z,3.17
2023-05-20T22:09:57.761Z,3.43
2023-05-20T22:13:03.149Z,3.87
2023-05-20T22:16:07.627Z,3.33
2023-05-20T22:19:11.293Z,4.03
2023-05-20T22:22:14.913Z,4.20
2023-05-20T22:25:18.708Z,3.40
2023-05-20T22:28:23.896Z,3.60
2023-05-20T22:31:27.707Z,3.57
2023-05-20T22:34:31.272Z,3.50
2023-05-20T22:37:35.059Z,3.43
2023-05-20T22:40:39.309Z,3.67
2023-05-20T22:43:44.633Z,3.77
2023-05-20T22:46:48.155Z,3.37
2023-05-20T22:49:51.951Z,3.60
2023-05-20T22:52:55.970Z,4.10
2023-05-20T22:56:00.019Z,3.77
2023-05-20T22:59:05.040Z,4.10
2023-05-20T23:02:08.994Z,3.17
2023-05-20T23:05:13.031Z,3.63
2023-05-20T23:08:16.803Z,3.53
2023-05-20T23:11:20.881Z,3.30
2023-05-20T23:14:26.290Z,4.33
2023-05-20T23:17:30.015Z,3.67
2023-05-20T23:20:33.657Z,3.00
2023-05-20T23:23:37.192Z,3.00
2023-05-20T23:26:40.824Z,3.10
2023-05-20T23:29:46.036Z,3.50
2023-05-20T23:32:50.012Z,3.17
2023-05-20T23:35:53.919Z,3.23
2023-05-20T23:38:57.812Z,2.70
2023-05-20T23:42:01.428Z,3.03
2023-05-20T23:45:07.754Z,2.83
2023-05-20T23:48:13.570Z,2.50
2023-05-20T23:51:17.382Z,3.30
2023-05-20T23:54:20.940Z,2.97
2023-05-20T23:57:24.436Z,2.57
